Time;durP1;ratioP1;P1;durP2;ratioP2;P2;SDS_P1;SDS_P2;PMS_P1;PMS_P2;Temp;Humidity;BMP_temperature;BMP_pressure;BME280_temperature;BME280_humidity;BME280_pressure;Samples;Min_cycle;Max_cycle;Signal;HPM_P1;HPM_P2
2022/08/06 00:01:41;;;;;;;5.50;3.92;;;9.30;99.90;;;;;;5051564;28;20041;-26
2022/08/06 00:04:07;;;;;;;8.95;5.13;;;9.30;99.90;;;;;;5052965;28;20410;-26
2022/08/06 00:06:33;;;;;;;7.68;4.70;;;9.30;99.90;;;;;;5051446;28;20041;-29
2022/08/06 00:08:58;;;;;;;7.28;5.20;;;9.40;99.90;;;;;;5051485;28;20052;-27
2022/08/06 00:11:24;;;;;;;12.75;5.60;;;9.40;99.90;;;;;;5053553;28;20049;-26
2022/08/06 00:13:50;;;;;;;7.43;4.60;;;9.40;99.90;;;;;;5053891;28;20060;-28
2022/08/06 00:16:15;;;;;;;6.60;3.35;;;9.30;99.90;;;;;;5052386;28;20403;-27
2022/08/06 00:18:41;;;;;;;6.53;3.40;;;9.30;99.90;;;;;;5052461;28;20087;-28
2022/08/06 00:21:07;;;;;;;5.93;3.80;;;9.30;99.90;;;;;;5052340;28;20044;-27
2022/08/06 00:23:33;;;;;;;6.72;4.07;;;9.30;99.90;;;;;;5052106;28;20047;-29
2022/08/06 00:25:58;;;;;;;7.93;4.35;;;9.30;99.90;;;;;;5050446;28;20059;-26
2022/08/06 00:28:25;;;;;;;8.15;5.10;;;9.30;99.90;;;;;;5053411;28;20045;-26
2022/08/06 00:30:51;;;;;;;7.30;4.80;;;9.30;99.90;;;;;;5034357;28;20052;-27
2022/08/06 00:33:17;;;;;;;7.97;3.72;;;9.30;99.90;;;;;;5051083;28;20048;-27
2022/08/06 00:35:43;;;;;;;5.68;4.45;;;9.30;99.90;;;;;;5050550;28;20120;-27
2022/08/06 00:38:10;;;;;;;6.50;4.70;;;9.20;99.90;;;;;;5052165;28;20119;-28
2022/08/06 00:40:36;;;;;;;6.70;4.25;;;9.10;99.90;;;;;;5050221;28;20087;-26
2022/08/06 00:43:04;;;;;;;9.32;4.13;;;9.10;99.90;;;;;;5053196;28;20140;-26
2022/08/06 00:45:34;;;;;;;7.10;4.35;;;9.10;99.90;;;;;;5052000;28;20546;-27
2022/08/06 00:48:00;;;;;;;10.27;4.20;;;9.10;99.90;;;;;;5051010;28;20417;-27
2022/08/06 00:50:27;;;;;;;5.82;4.82;;;9.10;99.90;;;;;;5053105;28;20099;-27
2022/08/06 00:52:53;;;;;;;7.05;4.85;;;9.10;1.00;;;;;;5053150;28;20124;-26
2022/08/06 00:55:19;;;;;;;6.45;3.40;;;9.00;1.00;;;;;;5052115;28;20124;-27
2022/08/06 00:57:46;;;;;;;8.15;4.43;;;9.00;1.00;;;;;;5050985;28;20056;-27
2022/08/06 01:00:12;;;;;;;5.22;4.47;;;9.00;1.00;;;;;;5053028;28;20106;-27
2022/08/06 01:02:38;;;;;;;7.40;3.22;;;9.00;1.00;;;;;;5054716;28;20084;-27
2022/08/06 01:05:05;;;;;;;5.75;3.67;;;9.00;1.00;;;;;;5054406;28;20076;-27
2022/08/06 01:07:30;;;;;;;6.93;3.22;;;9.00;1.00;;;;;;5054728;28;20095;-27
2022/08/06 01:09:56;;;;;;;9.50;4.30;;;8.90;1.00;;;;;;5054679;28;20494;-26
2022/08/06 01:12:22;;;;;;;6.47;4.85;;;8.90;1.00;;;;;;5055925;28;20052;-28
2022/08/06 01:14:47;;;;;;;5.40;4.05;;;8.80;1.00;;;;;;5036736;28;20064;-26
2022/08/06 01:17:23;;;;;;;8.13;3.70;;;8.90;1.00;;;;;;5055557;28;20055;-27
2022/08/06 01:20:16;;;;;;;7.00;3.50;;;8.80;1.00;;;;;;5055647;28;20041;-26
2022/08/06 01:23:06;;;;;;;6.18;3.38;;;8.80;1.00;;;;;;5055536;28;20067;-27
2022/08/06 01:26:09;;;;;;;5.60;3.40;;;8.80;1.00;;;;;;5056465;28;20119;-27
2022/08/06 01:28:49;;;;;;;7.55;3.90;;;8.80;1.00;;;;;;5054410;28;20455;-27
2022/08/06 01:31:30;;;;;;;4.50;3.70;;;8.80;1.00;;;;;;5053049;28;20075;-27
2022/08/06 01:34:16;;;;;;;6.32;3.85;;;8.80;1.00;;;;;;5038740;28;20053;-26
2022/08/06 01:36:51;;;;;;;5.82;4.68;;;8.80;1.00;;;;;;5056311;28;20049;-26
2022/08/06 01:39:20;;;;;;;6.68;3.67;;;8.80;1.00;;;;;;5056278;28;20056;-26
2022/08/06 01:41:51;;;;;;;5.53;4.10;;;8.70;1.00;;;;;;5055003;28;20546;-27
2022/08/06 01:44:20;;;;;;;4.57;4.10;;;8.80;1.00;;;;;;5053625;28;20072;-26
2022/08/06 01:46:56;;;;;;;5.30;3.55;;;8.60;1.00;;;;;;5055234;28;20052;-26
2022/08/06 01:49:29;;;;;;;5.38;4.00;;;8.70;1.00;;;;;;5055117;28;20052;-27
2022/08/06 01:51:59;;;;;;;4.38;3.72;;;8.70;1.00;;;;;;5052748;28;20090;-27
2022/08/06 01:54:27;;;;;;;6.07;4.32;;;8.60;1.00;;;;;;5053672;28;20041;-26
2022/08/06 01:56:56;;;;;;;6.47;5.78;;;8.80;1.00;;;;;;5053981;28;20403;-28
2022/08/06 01:59:30;;;;;;;7.70;5.40;;;8.80;1.00;;;;;;5054781;28;20045;-27
2022/08/06 02:01:58;;;;;;;8.82;5.20;;;8.70;20.70;;;;;;5052684;28;20071;-27
2022/08/06 02:04:27;;;;;;;8.27;5.03;;;8.80;41.50;;;;;;5053792;28;20068;-26
2022/08/06 02:06:55;;;;;;;6.47;4.43;;;8.80;57.20;;;;;;5052037;28;20056;-27
2022/08/06 02:09:23;;;;;;;7.63;3.80;;;8.70;54.80;;;;;;5053499;28;20055;-26
2022/08/06 02:11:56;;;;;;;3.70;3.20;;;8.70;26.40;;;;;;5054755;28;20046;-26
2022/08/06 02:14:24;;;;;;;5.15;4.65;;;8.60;1.00;;;;;;5053590;28;20053;-26
2022/08/06 02:16:53;;;;;;;5.15;3.40;;;8.60;1.00;;;;;;5054471;28;20494;-26
2022/08/06 02:19:21;;;;;;;4.88;3.35;;;8.60;1.00;;;;;;5053628;28;20044;-26
2022/08/06 02:21:48;;;;;;;4.75;3.97;;;8.60;1.00;;;;;;5053364;28;20083;-26
2022/08/06 02:24:14;;;;;;;7.53;4.18;;;8.60;1.00;;;;;;5054346;28;20049;-26
2022/08/06 02:26:42;;;;;;;6.50;4.63;;;8.60;1.00;;;;;;5055571;28;20049;-27
2022/08/06 02:29:13;;;;;;;4.63;3.75;;;8.60;38.70;;;;;;5054364;28;20049;-26
2022/08/06 02:31:39;;;;;;;6.55;4.57;;;8.60;46.00;;;;;;5052241;28;20053;-27
2022/08/06 02:34:05;;;;;;;5.50;4.60;;;8.50;99.90;;;;;;5052821;28;20057;-26
2022/08/06 02:36:49;;;;;;;7.55;3.90;;;8.50;99.90;;;;;;5052765;28;20044;-26
2022/08/06 02:39:29;;;;;;;9.07;4.60;;;8.60;99.90;;;;;;5053727;28;20471;-26
2022/08/06 02:42:08;;;;;;;5.50;4.40;;;8.50;99.90;;;;;;5055319;28;20398;-27
2022/08/06 02:44:56;;;;;;;5.57;4.28;;;8.60;99.90;;;;;;5054162;28;20041;-26
2022/08/06 02:47:39;;;;;;;7.18;4.35;;;8.60;99.90;;;;;;5050106;28;20049;-26
2022/08/06 02:50:07;;;;;;;7.63;5.28;;;8.50;99.90;;;;;;5051591;28;20079;-26
2022/08/06 02:52:44;;;;;;;5.93;5.13;;;8.50;99.90;;;;;;5054799;28;20072;-26
2022/08/06 02:55:14;;;;;;;6.82;4.40;;;8.50;99.90;;;;;;5053984;28;20479;-26
2022/08/06 02:57:48;;;;;;;7.60;4.43;;;8.60;99.90;;;;;;5053274;28;20098;-27
2022/08/06 03:00:15;;;;;;;6.05;4.70;;;8.60;99.90;;;;;;5037368;28;20037;-26
2022/08/06 03:02:43;;;;;;;8.27;4.57;;;8.60;99.90;;;;;;5053587;28;20114;-26
2022/08/06 03:05:15;;;;;;;11.80;4.85;;;8.60;99.90;;;;;;5053430;28;20091;-27
2022/08/06 03:07:42;;;;;;;7.45;4.55;;;8.60;99.90;;;;;;5050518;28;20087;-26
2022/08/06 03:10:09;;;;;;;9.20;4.97;;;8.70;99.90;;;;;;5051329;28;20041;-26
2022/08/06 03:12:36;;;;;;;4.82;4.18;;;8.60;99.90;;;;;;5053314;28;20498;-26
2022/08/06 03:15:05;;;;;;;4.80;4.40;;;8.70;99.90;;;;;;5052485;28;20057;-26
2022/08/06 03:17:32;;;;;;;6.53;4.68;;;8.60;99.90;;;;;;5053271;28;20510;-26
2022/08/06 03:20:01;;;;;;;5.45;3.88;;;8.50;99.90;;;;;;5052212;28;20037;-27
2022/08/06 03:22:29;;;;;;;5.65;3.70;;;8.60;99.90;;;;;;5033122;28;20049;-27
2022/08/06 03:24:56;;;;;;;4.55;3.75;;;8.50;99.90;;;;;;5043915;28;20494;-25
2022/08/06 03:27:23;;;;;;;5.75;3.72;;;8.50;99.90;;;;;;5052983;28;20041;-25
2022/08/06 03:29:50;;;;;;;6.38;3.60;;;8.50;99.90;;;;;;5053384;28;20120;-25
2022/08/06 03:32:16;;;;;;;5.65;3.47;;;8.50;99.90;;;;;;5036535;28;20052;-25
2022/08/06 03:34:43;;;;;;;4.95;4.40;;;8.50;99.90;;;;;;5052908;28;20514;-26
2022/08/06 03:37:09;;;;;;;6.20;4.10;;;8.50;99.90;;;;;;5050844;28;20056;-26
2022/08/06 03:39:39;;;;;;;9.63;4.03;;;8.50;99.90;;;;;;5051846;28;20072;-26
2022/08/06 03:42:05;;;;;;;6.30;4.15;;;8.40;99.90;;;;;;5054770;28;20099;-26
2022/08/06 03:44:31;;;;;;;6.93;3.80;;;8.40;99.90;;;;;;5052691;28;20041;-26
2022/08/06 03:47:08;;;;;;;5.47;3.45;;;8.40;99.90;;;;;;5052749;28;20040;-25
2022/08/06 03:49:50;;;;;;;11.05;4.28;;;8.40;99.90;;;;;;5050712;28;20083;-26
2022/08/06 03:52:20;;;;;;;4.95;3.90;;;8.40;99.90;;;;;;5052374;28;20052;-27
2022/08/06 03:54:50;;;;;;;6.07;4.63;;;8.40;99.90;;;;;;5053629;28;20063;-26
2022/08/06 03:57:19;;;;;;;5.78;4.38;;;8.40;99.90;;;;;;5052820;28;20409;-26
2022/08/06 03:59:48;;;;;;;6.03;4.47;;;8.40;99.90;;;;;;5052653;28;20044;-26
2022/08/06 04:02:15;;;;;;;7.65;4.13;;;8.50;99.90;;;;;;5054242;28;20088;-26
2022/08/06 04:04:43;;;;;;;5.25;4.75;;;8.50;99.90;;;;;;5034754;28;20506;-26
2022/08/06 04:07:12;;;;;;;4.55;4.13;;;8.50;99.90;;;;;;5051426;28;20037;-25
2022/08/06 04:09:38;;;;;;;6.57;5.18;;;8.70;99.90;;;;;;5051125;28;20567;-26
2022/08/06 04:12:05;;;;;;;7.10;5.90;;;8.90;99.90;;;;;;5052852;28;20119;-26
2022/08/06 04:14:31;;;;;;;8.88;5.25;;;8.90;99.90;;;;;;5052155;28;20124;-26
2022/08/06 04:16:58;;;;;;;5.95;4.75;;;9.10;99.90;;;;;;5052396;28;20045;-26
2022/08/06 04:19:24;;;;;;;6.40;4.68;;;9.10;99.90;;;;;;5052368;28;20502;-26
2022/08/06 04:21:50;;;;;;;6.93;4.32;;;9.10;99.90;;;;;;5051150;28;20110;-26
2022/08/06 04:24:15;;;;;;;8.40;4.50;;;9.30;99.90;;;;;;5051294;28;20538;-26
2022/08/06 04:26:44;;;;;;;5.97;3.97;;;9.40;1.00;;;;;;5053090;28;20049;-26
2022/08/06 04:29:14;;;;;;;5.93;4.35;;;9.50;1.00;;;;;;5052643;28;20048;-26
2022/08/06 04:31:44;;;;;;;4.22;3.80;;;9.50;1.00;;;;;;5053263;28;20106;-26
2022/08/06 04:34:11;;;;;;;4.78;3.95;;;9.70;1.00;;;;;;5052308;28;20122;-26
2022/08/06 04:36:37;;;;;;;4.30;3.85;;;9.80;1.00;;;;;;5055283;28;20041;-26
2022/08/06 04:39:03;;;;;;;4.28;3.40;;;9.80;1.00;;;;;;5056108;28;20052;-26
2022/08/06 04:41:29;;;;;;;7.38;3.97;;;9.80;1.00;;;;;;5055180;28;20087;-26
2022/08/06 04:43:54;;;;;;;4.25;3.35;;;9.70;1.00;;;;;;5055696;28;20138;-26
2022/08/06 04:46:21;;;;;;;4.00;3.60;;;9.80;1.00;;;;;;5055516;28;20092;-26
2022/08/06 04:48:47;;;;;;;5.63;4.35;;;9.70;1.00;;;;;;5057222;28;20505;-26
2022/08/06 04:51:13;;;;;;;5.25;4.22;;;9.80;1.00;;;;;;5056061;28;20048;-26
2022/08/06 04:53:41;;;;;;;8.02;4.88;;;9.70;1.00;;;;;;5055175;28;20045;-26
2022/08/06 04:56:07;;;;;;;7.45;4.30;;;9.80;1.00;;;;;;5056581;28;20052;-26
2022/08/06 04:58:34;;;;;;;7.15;4.70;;;9.70;1.00;;;;;;5056419;28;20371;-26
2022/08/06 05:01:00;;;;;;;3.92;3.58;;;9.60;1.00;;;;;;5055534;28;20082;-26
2022/08/06 05:03:27;;;;;;;8.38;3.70;;;9.70;1.00;;;;;;5057206;28;20429;-26
2022/08/06 05:06:23;;;;;;;5.90;4.43;;;9.60;1.00;;;;;;5050814;28;20053;-27
2022/08/06 05:08:54;;;;;;;5.30;3.78;;;9.70;1.00;;;;;;5046720;28;20465;-26
2022/08/06 05:11:26;;;;;;;6.45;4.00;;;9.70;1.00;;;;;;5054851;28;20049;-26
2022/08/06 05:13:59;;;;;;;3.95;3.55;;;9.80;1.00;;;;;;5036558;28;20398;-26
2022/08/06 05:16:27;;;;;;;4.65;3.60;;;9.90;1.00;;;;;;5049354;28;20052;-26
2022/08/06 05:18:59;;;;;;;5.05;4.30;;;9.90;1.00;;;;;;5055314;28;20551;-26
2022/08/06 05:21:31;;;;;;;4.00;3.42;;;10.00;1.00;;;;;;5057479;28;20136;-27
2022/08/06 05:23:57;;;;;;;6.05;3.80;;;10.10;1.00;;;;;;5070088;28;20057;-26
2022/08/06 05:26:24;;;;;;;6.45;4.40;;;10.20;1.00;;;;;;5055372;28;20121;-27
2022/08/06 05:28:50;;;;;;;4.32;3.92;;;10.20;1.00;;;;;;5037856;28;20422;-26
2022/08/06 05:31:30;;;;;;;5.78;3.70;;;10.10;99.90;;;;;;5056240;28;20045;-26
2022/08/06 05:33:56;;;;;;;7.25;3.75;;;10.30;99.90;;;;;;5054285;28;20048;-27
2022/08/06 05:36:21;;;;;;;6.63;3.90;;;10.20;99.90;;;;;;5056845;28;20049;-27
2022/08/06 05:38:47;;;;;;;7.95;3.72;;;10.20;99.90;;;;;;5053660;28;20403;-27
2022/08/06 05:41:13;;;;;;;6.20;3.70;;;10.30;99.90;;;;;;5038393;28;20048;-26
2022/08/06 05:43:40;;;;;;;5.13;3.15;;;10.40;99.90;;;;;;5055338;28;20131;-26
2022/08/06 05:46:13;;;;;;;4.07;3.63;;;10.30;99.90;;;;;;5054618;28;20051;-26
2022/08/06 05:48:42;;;;;;;;;;;10.40;99.90;;;;;;5055348;28;20052;-26
2022/08/06 05:51:24;;;;;;;4.05;3.65;;;10.40;99.90;;;;;;5035717;28;20394;-27
2022/08/06 05:53:57;;;;;;;5.40;3.87;;;10.60;99.90;;;;;;5054877;28;20048;-27
2022/08/06 05:56:34;;;;;;;5.25;3.80;;;10.90;1.00;;;;;;5054104;28;20045;-27
2022/08/06 05:59:06;;;;;;;4.25;2.97;;;12.00;1.00;;;;;;5035959;28;20157;-27
2022/08/06 06:01:34;;;;;;;4.47;2.60;;;13.10;27.90;;;;;;5039281;28;20105;-27
2022/08/06 06:04:02;;;;;;;4.40;1.90;;;14.00;1.00;;;;;;5055231;28;20395;-28
2022/08/06 06:06:28;;;;;;;6.30;2.30;;;14.80;99.90;;;;;;5054478;28;20517;-27
2022/08/06 06:08:54;;;;;;;6.10;1.73;;;15.40;99.90;;;;;;5054183;28;20447;-27
2022/08/06 06:11:20;;;;;;;3.88;1.75;;;15.60;1.00;;;;;;5048215;28;20134;-27
2022/08/06 06:13:47;;;;;;;5.45;1.58;;;15.50;17.20;;;;;;5035318;28;20072;-27
2022/08/06 06:16:27;;;;;;;3.58;1.80;;;15.40;1.00;;;;;;5054410;28;20052;-27
2022/08/06 06:19:15;;;;;;;4.15;1.67;;;15.10;1.00;;;;;;5054523;28;20053;-26
2022/08/06 06:22:01;;;;;;;5.20;2.40;;;15.10;1.00;;;;;;5051855;28;20045;-27
2022/08/06 06:24:32;;;;;;;3.33;1.63;;;15.10;1.00;;;;;;5053256;28;20068;-27
2022/08/06 06:27:05;;;;;;;3.50;1.52;;;15.00;1.00;;;;;;5053293;28;20098;-27
2022/08/06 06:30:05;;;;;;;5.53;1.70;;;14.90;1.00;;;;;;5053960;28;20079;-26
2022/08/06 06:32:34;;;;;;;4.32;1.50;;;14.90;1.00;;;;;;5054590;28;20049;-27
2022/08/06 06:35:27;;;;;;;3.58;1.50;;;14.90;2.60;;;;;;5053273;28;20057;-27
2022/08/06 06:38:01;;;;;;;8.98;1.52;;;14.80;31.30;;;;;;5054106;28;20053;-27
2022/08/06 06:40:46;;;;;;;1.98;1.02;;;14.70;1.00;;;;;;5054157;28;20076;-27
2022/08/06 06:43:29;;;;;;;6.10;1.08;;;14.60;1.00;;;;;;5054677;28;20052;-27
2022/08/06 06:46:04;;;;;;;2.65;1.23;;;14.70;99.90;;;;;;5049246;28;20037;-27
2022/08/06 06:48:46;;;;;;;4.85;1.50;;;14.80;99.90;;;;;;5041949;28;20041;-27
2022/08/06 06:51:25;;;;;;;4.03;0.75;;;14.90;99.90;;;;;;5041365;28;20479;-27
2022/08/06 06:53:53;;;;;;;3.40;1.17;;;15.00;12.50;;;;;;5058361;28;20049;-27
2022/08/06 06:56:22;;;;;;;2.15;0.80;;;15.20;1.00;;;;;;5052860;28;20502;-27
2022/08/06 06:59:15;;;;;;;2.42;0.80;;;15.40;1.00;;;;;;5053472;28;20055;-27
2022/08/06 07:01:42;;;;;;;2.05;0.80;;;15.70;99.90;;;;;;5054606;28;20060;-27
2022/08/06 07:04:13;;;;;;;2.63;0.88;;;15.90;99.90;;;;;;5054569;28;20052;-27
2022/08/06 07:06:40;;;;;;;1.75;0.50;;;16.20;99.90;;;;;;5053960;28;20053;-29
2022/08/06 07:09:08;;;;;;;4.45;0.75;;;16.40;88.40;;;;;;5053844;28;20190;-27
2022/08/06 07:11:36;;;;;;;2.50;0.70;;;16.20;1.00;;;;;;5054338;28;20041;-27
2022/08/06 07:14:03;;;;;;;5.53;0.70;;;16.30;1.00;;;;;;5053011;28;20071;-27
2022/08/06 07:16:31;;;;;;;1.52;0.40;;;16.40;1.00;;;;;;5054413;28;20067;-27
2022/08/06 07:19:01;;;;;;;2.28;0.30;;;16.60;99.90;;;;;;5054328;28;20083;-27
2022/08/06 07:21:27;;;;;;;1.90;0.25;;;16.70;1.00;;;;;;5054378;28;20037;-27
2022/08/06 07:23:53;;;;;;;4.25;0.95;;;16.80;98.70;;;;;;5053047;28;20159;-27
2022/08/06 07:26:22;;;;;;;2.97;0.30;;;16.90;99.90;;;;;;5054510;28;20049;-27
2022/08/06 07:28:50;;;;;;;3.38;0.40;;;17.00;1.00;;;;;;5053484;28;20067;-27
2022/08/06 07:31:18;;;;;;;3.40;0.73;;;17.10;12.70;;;;;;5053567;28;20458;-27
2022/08/06 07:33:45;;;;;;;2.80;1.02;;;17.30;63.00;;;;;;5054609;28;20049;-27
2022/08/06 07:36:15;;;;;;;3.97;0.40;;;17.30;1.00;;;;;;5053995;28;20086;-27
2022/08/06 07:38:44;;;;;;;5.72;0.57;;;17.40;99.90;;;;;;5055041;28;20449;-27
2022/08/06 07:41:12;;;;;;;2.72;0.50;;;17.40;99.90;;;;;;5054012;28;20406;-27
2022/08/06 07:43:46;;;;;;;4.47;0.50;;;17.50;99.90;;;;;;5054224;28;20053;-27
2022/08/06 07:46:26;;;;;;;3.95;0.50;;;17.50;1.00;;;;;;5053533;28;20053;-27
2022/08/06 07:49:03;;;;;;;3.55;0.30;;;17.40;1.00;;;;;;5053882;28;20052;-27
2022/08/06 07:51:32;;;;;;;1.98;0.50;;;17.40;99.90;;;;;;5053787;28;20132;-27
2022/08/06 07:53:59;;;;;;;3.33;0.30;;;17.60;1.00;;;;;;5052790;28;20049;-28
2022/08/06 07:56:26;;;;;;;2.35;0.57;;;17.90;1.00;;;;;;5053664;28;20053;-28
2022/08/06 07:58:53;;;;;;;1.50;0.30;;;18.10;99.90;;;;;;5053644;28;20140;-27
2022/08/06 08:01:19;;;;;;;2.00;0.47;;;18.40;99.90;;;;;;5053610;28;20502;-28
2022/08/06 08:06:31;;;;;;;2.97;0.40;;;19.00;1.00;;;;;;5051609;28;20052;-27
2022/08/06 08:09:12;;;;;;;2.50;0.40;;;18.90;1.00;;;;;;5051449;28;20507;-27
2022/08/06 08:11:43;;;;;;;2.20;0.20;;;18.60;96.00;;;;;;5054036;28;20044;-28
2022/08/06 08:14:10;;;;;;;1.77;0.40;;;18.20;99.90;;;;;;5053743;28;20483;-28
2022/08/06 08:16:40;;;;;;;1.58;0.40;;;18.00;99.90;;;;;;5052082;28;20048;-27
2022/08/06 08:19:32;;;;;;;2.95;0.73;;;17.70;99.90;;;;;;5053786;28;20415;-27
2022/08/06 08:22:00;;;;;;;5.10;0.60;;;17.40;99.90;;;;;;5032760;28;20057;-28
2022/08/06 08:24:28;;;;;;;3.42;0.70;;;17.20;99.90;;;;;;5048090;28;20052;-29
2022/08/06 08:26:54;;;;;;;4.00;0.75;;;17.20;99.90;;;;;;5053575;28;20144;-27
2022/08/06 08:29:20;;;;;;;2.83;0.60;;;17.10;99.90;;;;;;5052245;28;20041;-29
2022/08/06 08:31:46;;;;;;;5.30;0.70;;;17.20;99.90;;;;;;5054113;28;20064;-27
2022/08/06 08:34:12;;;;;;;2.75;0.70;;;17.20;99.90;;;;;;5053373;28;20053;-27
2022/08/06 08:36:39;;;;;;;4.90;1.20;;;17.30;98.60;;;;;;5052319;28;20412;-28
2022/08/06 08:39:05;;;;;;;2.75;0.70;;;17.40;99.90;;;;;;5052004;28;20052;-28
2022/08/06 08:41:46;;;;;;;3.38;0.60;;;17.50;99.90;;;;;;5053215;28;20121;-28
2022/08/06 08:44:14;;;;;;;3.53;0.90;;;17.50;99.90;;;;;;5042083;28;20072;-29
2022/08/06 08:46:42;;;;;;;7.03;1.55;;;17.60;99.90;;;;;;5033353;28;20513;-28
2022/08/06 08:49:19;;;;;;;8.48;1.30;;;17.40;99.90;;;;;;5033306;28;20081;-28
2022/08/06 08:51:47;;;;;;;4.00;1.42;;;17.30;99.90;;;;;;5033926;28;20068;-28
2022/08/06 08:54:20;;;;;;;3.45;0.90;;;17.10;99.90;;;;;;5043098;28;20384;-28
2022/08/06 08:56:47;;;;;;;7.20;1.48;;;17.10;99.90;;;;;;5051908;28;20123;-28
2022/08/06 08:59:14;;;;;;;3.63;0.98;;;17.10;99.90;;;;;;5052731;28;20384;-28
2022/08/06 09:01:40;;;;;;;7.57;2.15;;;17.40;99.90;;;;;;5051767;28;20045;-27
2022/08/06 09:04:06;;;;;;;4.60;1.13;;;17.50;99.90;;;;;;5032148;28;20136;-28
2022/08/06 09:06:32;;;;;;;2.22;0.70;;;17.60;1.00;;;;;;5033470;28;20128;-28
2022/08/06 09:09:03;;;;;;;2.35;1.20;;;17.50;1.00;;;;;;5051220;28;20529;-28
2022/08/06 09:11:30;;;;;;;2.55;1.00;;;17.60;1.00;;;;;;5052036;28;20045;-28
2022/08/06 09:13:59;;;;;;;2.35;0.85;;;18.10;99.90;;;;;;5052829;28;20114;-28
2022/08/06 09:16:25;;;;;;;3.40;1.10;;;18.20;99.90;;;;;;5052922;28;20083;-28
2022/08/06 09:18:51;;;;;;;3.15;1.08;;;18.70;1.00;;;;;;5052869;28;20053;-28
2022/08/06 09:21:16;;;;;;;5.68;1.58;;;19.50;1.00;;;;;;5052495;28;20064;-28
2022/08/06 09:23:42;;;;;;;4.68;1.48;;;20.10;1.00;;;;;;5056131;28;20055;-28
2022/08/06 09:26:08;;;;;;;2.97;1.08;;;20.30;99.90;;;;;;5063941;28;20048;-28
2022/08/06 09:28:42;;;;;;;4.82;1.27;;;20.40;99.90;;;;;;5027657;28;20050;-28
2022/08/06 09:31:14;;;;;;;3.42;1.27;;;20.80;99.90;;;;;;5036648;28;20110;-28
2022/08/06 09:33:52;;;;;;;2.45;1.20;;;20.60;99.90;;;;;;5037258;28;20057;-28
2022/08/06 09:36:17;;;;;;;4.05;1.40;;;20.90;99.90;;;;;;5048116;28;20036;-28
2022/08/06 09:38:53;;;;;;;2.55;0.90;;;21.00;5.80;;;;;;5056411;28;20052;-28
2022/08/06 09:41:23;;;;;;;3.15;1.38;;;20.50;1.00;;;;;;5055824;28;20403;-28
2022/08/06 09:43:52;;;;;;;3.55;1.00;;;20.60;94.90;;;;;;5053331;28;20053;-28
2022/08/06 09:46:34;;;;;;;4.63;1.30;;;21.00;1.00;;;;;;5055977;28;20053;-28
2022/08/06 09:49:01;;;;;;;3.08;1.20;;;21.10;35.10;;;;;;5055428;28;20071;-27
2022/08/06 09:51:27;;;;;;;3.80;1.27;;;20.80;47.30;;;;;;5054960;28;20033;-29
2022/08/06 09:53:57;;;;;;;3.30;1.35;;;20.80;1.00;;;;;;5054846;28;20055;-28
2022/08/06 09:56:24;;;;;;;2.78;1.02;;;21.10;1.00;;;;;;5038861;28;20060;-28
2022/08/06 09:58:50;;;;;;;3.05;1.25;;;21.20;1.00;;;;;;5054816;28;20040;-28
2022/08/06 10:01:21;;;;;;;1.95;0.88;;;21.50;1.00;;;;;;5054677;28;20048;-28
2022/08/06 10:03:48;;;;;;;2.40;1.05;;;21.40;1.00;;;;;;5055823;28;20111;-28
2022/08/06 10:06:20;;;;;;;5.15;1.50;;;21.90;1.00;;;;;;5054751;28;20505;-28
2022/08/06 10:08:49;;;;;;;3.33;1.13;;;22.70;40.90;;;;;;5036562;28;20124;-28
2022/08/06 10:11:32;;;;;;;4.15;1.10;;;22.30;50.00;;;;;;5055155;28;20393;-28
2022/08/06 10:13:58;;;;;;;3.72;1.60;;;22.00;11.80;;;;;;5055600;28;20091;-28
2022/08/06 10:16:26;;;;;;;2.50;1.17;;;22.00;94.70;;;;;;5056132;28;20049;-28
2022/08/06 10:18:53;;;;;;;1.65;1.10;;;22.50;1.00;;;;;;5055494;28;20056;-28
2022/08/06 10:21:22;;;;;;;2.88;1.55;;;22.00;60.40;;;;;;5054619;28;20044;-28
2022/08/06 10:23:58;;;;;;;3.55;1.40;;;21.70;99.70;;;;;;5054178;28;20048;-28
2022/08/06 10:26:33;;;;;;;2.10;1.48;;;21.60;99.90;;;;;;5071693;28;20056;-28
2022/08/06 10:29:06;;;;;;;2.90;1.40;;;21.90;1.00;;;;;;5054388;28;20126;-28
2022/08/06 10:31:36;;;;;;;3.75;1.30;;;21.30;1.00;;;;;;5054080;28;20103;-28
2022/08/06 10:34:08;;;;;;;4.03;1.70;;;21.30;1.00;;;;;;5054965;28;20140;-28
2022/08/06 10:36:40;;;;;;;2.72;1.42;;;21.90;1.00;;;;;;5055271;28;20072;-28
2022/08/06 10:39:06;;;;;;;;;;;21.60;1.00;;;;;;5054719;28;20044;-28
2022/08/06 10:41:35;;;;;;;4.60;1.80;;;21.30;1.00;;;;;;5054963;28;19924;-28
2022/08/06 10:44:02;;;;;;;2.60;1.73;;;21.10;8.70;;;;;;5054083;28;20045;-28
2022/08/06 10:46:28;;;;;;;4.97;2.17;;;20.80;1.00;;;;;;5054900;28;20053;-28
2022/08/06 10:48:54;;;;;;;2.15;1.60;;;20.90;1.00;;;;;;5052278;28;20115;-28
2022/08/06 10:51:20;;;;;;;2.90;1.70;;;21.10;1.00;;;;;;5057846;28;20468;-28
2022/08/06 10:53:47;;;;;;;2.50;1.75;;;21.10;1.00;;;;;;5053853;28;20056;-28
2022/08/06 10:56:15;;;;;;;2.72;1.73;;;21.70;1.00;;;;;;5054711;28;20053;-29
2022/08/06 10:58:42;;;;;;;3.58;1.77;;;22.00;47.20;;;;;;5055239;28;20048;-28
2022/08/06 11:01:18;;;;;;;2.25;1.63;;;22.80;99.90;;;;;;5051249;28;20041;-28
2022/08/06 11:04:04;;;;;;;3.50;1.80;;;23.30;99.90;;;;;;5053546;28;20048;-28
2022/08/06 11:06:45;;;;;;;2.35;1.70;;;23.70;99.90;;;;;;5054346;28;20406;-28
2022/08/06 11:09:49;;;;;;;5.38;1.80;;;23.50;99.90;;;;;;5055165;28;20048;-28
2022/08/06 11:12:35;;;;;;;2.15;1.55;;;22.50;99.90;;;;;;5050149;28;20052;-28
2022/08/06 11:15:04;;;;;;;5.30;1.90;;;22.40;99.90;;;;;;5049875;28;20410;-28
2022/08/06 11:17:47;;;;;;;4.15;1.88;;;22.70;99.90;;;;;;5054445;28;20049;-29
2022/08/06 11:20:31;;;;;;;3.63;1.92;;;22.70;99.90;;;;;;5052176;28;20569;-28
2022/08/06 11:22:57;;;;;;;4.22;2.40;;;22.50;99.90;;;;;;5054198;28;20495;-29
2022/08/06 11:25:51;;;;;;;5.35;2.50;;;22.40;99.90;;;;;;5052430;28;20040;-28
2022/08/06 11:28:19;;;;;;;2.22;1.70;;;22.20;99.90;;;;;;5051776;28;20406;-28
2022/08/06 11:30:56;;;;;;;3.53;2.00;;;22.00;99.90;;;;;;5053934;28;20053;-28
2022/08/06 11:33:34;;;;;;;3.65;2.10;;;21.60;99.90;;;;;;5053819;28;20380;-28
2022/08/06 11:36:03;;;;;;;3.50;2.08;;;21.50;99.90;;;;;;5064095;28;20041;-28
2022/08/06 11:38:48;;;;;;;2.75;2.10;;;21.60;99.90;;;;;;5054031;28;20127;-29
2022/08/06 11:41:23;;;;;;;2.78;2.10;;;21.70;99.90;;;;;;5053015;28;20049;-28
2022/08/06 11:43:52;;;;;;;3.88;2.35;;;21.80;99.90;;;;;;5053531;28;20082;-28
2022/08/06 11:46:31;;;;;;;3.10;2.38;;;21.70;99.90;;;;;;5047082;28;20045;-28
2022/08/06 11:49:00;;;;;;;4.95;2.15;;;21.70;99.90;;;;;;5043322;28;20095;-28
2022/08/06 11:51:42;;;;;;;3.33;2.35;;;21.50;99.90;;;;;;5041592;28;20120;-29
2022/08/06 11:54:10;;;;;;;4.63;2.83;;;21.60;99.90;;;;;;5044710;28;20055;-28
2022/08/06 11:56:55;;;;;;;5.30;2.47;;;21.60;99.90;;;;;;5048685;28;20135;-28
2022/08/06 11:59:20;;;;;;;4.00;2.50;;;21.80;99.90;;;;;;5052694;28;20115;-28
2022/08/06 12:01:47;;;;;;;3.45;2.45;;;21.60;99.90;;;;;;5052628;28;20464;-29
2022/08/06 12:04:31;;;;;;;2.20;1.95;;;21.40;99.90;;;;;;5035877;28;20380;-28
2022/08/06 12:07:18;;;;;;;3.17;2.22;;;21.20;95.00;;;;;;5053914;28;20475;-28
2022/08/06 12:09:45;;;;;;;3.35;2.35;;;21.30;99.90;;;;;;5054409;28;20067;-28
2022/08/06 12:12:29;;;;;;;3.97;2.05;;;22.10;99.90;;;;;;5052912;28;20056;-28
2022/08/06 12:15:00;;;;;;;3.92;2.38;;;22.30;99.90;;;;;;5051241;28;20057;-28
2022/08/06 12:17:28;;;;;;;3.20;2.10;;;22.20;99.90;;;;;;5050062;28;20528;-28
2022/08/06 12:20:02;;;;;;;4.70;2.40;;;22.30;99.90;;;;;;5053176;28;20395;-28
2022/08/06 12:22:30;;;;;;;2.60;2.20;;;23.40;99.90;;;;;;5054335;28;20140;-28
2022/08/06 12:24:58;;;;;;;4.25;2.42;;;24.60;99.90;;;;;;5051212;28;20391;-29
2022/08/06 12:27:31;;;;;;;6.93;2.45;;;23.90;99.90;;;;;;5050317;28;20094;-28
2022/08/06 12:29:59;;;;;;;3.25;1.80;;;23.00;99.90;;;;;;5055427;28;20056;-28
2022/08/06 12:32:26;;;;;;;3.03;2.30;;;22.90;99.90;;;;;;5052331;28;20045;-28
2022/08/06 12:34:54;;;;;;;5.18;2.30;;;23.30;99.90;;;;;;5052493;28;20106;-28
2022/08/06 12:37:21;;;;;;;2.85;2.15;;;23.10;99.90;;;;;;5052362;28;20051;-28
2022/08/06 12:42:32;;;;;;;2.47;2.17;;;23.30;99.90;;;;;;5052673;28;20082;-28
2022/08/06 12:44:58;;;;;;;3.47;2.20;;;22.30;99.90;;;;;;5052308;28;20048;-28
2022/08/06 12:47:27;;;;;;;2.78;2.28;;;22.20;99.90;;;;;;5052156;28;20438;-28
2022/08/06 12:49:53;;;;;;;3.45;2.42;;;22.40;99.90;;;;;;5052152;28;20037;-28
2022/08/06 12:52:21;;;;;;;2.97;2.05;;;23.10;99.90;;;;;;5052097;28;20073;-28
2022/08/06 12:54:49;;;;;;;2.35;2.15;;;23.40;99.90;;;;;;5051268;28;20048;-28
2022/08/06 12:57:30;;;;;;;5.07;2.65;;;23.40;99.90;;;;;;5053535;28;20391;-29
2022/08/06 12:59:56;;;;;;;4.70;2.47;;;23.40;99.90;;;;;;5054234;28;20063;-29
2022/08/06 13:02:25;;;;;;;5.88;2.58;;;23.30;99.90;;;;;;5053665;28;20085;-28
2022/08/06 13:04:54;;;;;;;3.80;2.63;;;23.20;99.90;;;;;;5055969;28;20048;-28
2022/08/06 13:07:21;;;;;;;3.58;2.13;;;23.30;99.90;;;;;;5057670;28;20133;-28
2022/08/06 13:09:48;;;;;;;2.50;2.30;;;23.20;99.90;;;;;;5055599;28;20069;-29
2022/08/06 13:12:18;;;;;;;4.28;2.13;;;23.30;99.90;;;;;;5055816;28;20054;-28
2022/08/06 13:14:53;;;;;;;4.97;3.00;;;23.00;99.90;;;;;;5056494;28;20088;-28
2022/08/06 13:17:21;;;;;;;4.50;2.40;;;23.00;99.90;;;;;;5057564;28;20130;-28
2022/08/06 13:19:58;;;;;;;2.15;1.95;;;22.70;99.90;;;;;;5055649;28;20116;-29